Terminal Aerodrome Forecast
Issued by NWS Green Bay, WI

Home | Current Version | Previous Version | Text Only | Print | Product List | Glossary Off
Versions: 1 2 3 4 5 6 7 8 9 10 11 12 13 14 15 16 17 18 19

000
FTUS43 KGRB 241124
TAFGRB
TAF
KGRB 241124Z 2412/2512 04012KT P6SM OVC008
      TEMPO 2412/2416 5SM -SHRA BR OVC006
     FM241600 04012KT 5SM -SHRA BR OVC006
     FM242100 04012G18KT P6SM BKN020
     FM250800 01010KT 5SM BR BKN010=

USA.gov is the U.S. government's official web portal to all federal, state and local government web resources and services.